Weather at Centre Hospitalier Heliport

Public forecast

Using degrees Celsius for public forecast. Weather courtesy of forecast.io.

Closest aviation weather report (METAR) to Centre Hospitalier Heliport

Closest report is Annecy-Haute-Savoie-Mont Blanc Airport, 2.4 nm (4.4 km) NNW. Retrieved 2021/01/16 16:30 UTC (16 minutes ago):

LFLP 161630Z AUTO VRB02KT 9999 FEW023 BKN130 00/M03 Q1025 NOSIG

Closest aviation forecast (TAF) to Centre Hospitalier Heliport

Closest forecast is Annecy-Haute-Savoie-Mont Blanc Airport, 2.4 nm (4.4 km) NNW. Retrieved 2021/01/16 15:00 UTC (2 hours ago):

TAF LFLP 161400Z 1615/1715 VRB03KT 9999 BKN030 TEMPO 1620/1702 1500 SN OVC002 PROB30 TEMPO 1702/1707 4000 BR